Map

Track Data

SID SEASON NUMBER BASIN SUBBASIN NAME ISO_TIME NATURE LAT LON WMO_WIND WMO_PRES WMO_AGENCY TRACK_TYPE DIST2LAND LANDFALL IFLAG USA_AGENCY USA_ATCF_ID USA_LAT USA_LON USA_RECORD USA_STATUS USA_WIND USA_PRES USA_SSHS USA_R34_NE USA_R34_SE USA_R34_SW USA_R34_NW USA_R50_NE USA_R50_SE USA_R50_SW USA_R50_NW USA_R64_NE USA_R64_SE USA_R64_SW USA_R64_NW USA_POCI USA_ROCI USA_RMW USA_EYE TOKYO_LAT TOKYO_LON TOKYO_GRADE TOKYO_WIND TOKYO_PRES TOKYO_R50_DIR TOKYO_R50_LONG TOKYO_R50_SHORT TOKYO_R30_DIR TOKYO_R30_LONG TOKYO_R30_SHORT TOKYO_LAND CMA_LAT CMA_LON CMA_CAT CMA_WIND CMA_PRES HKO_LAT HKO_LON HKO_CAT HKO_WIND HKO_PRES NEWDELHI_LAT NEWDELHI_LON NEWDELHI_GRADE NEWDELHI_WIND NEWDELHI_PRES NEWDELHI_CI NEWDELHI_DP NEWDELHI_POCI REUNION_LAT REUNION_LON REUNION_TYPE REUNION_WIND REUNION_PRES REUNION_TNUM REUNION_CI REUNION_RMW REUNION_R34_NE REUNION_R34_SE REUNION_R34_SW REUNION_R34_NW REUNION_R50_NE REUNION_R50_SE REUNION_R50_SW REUNION_R50_NW REUNION_R64_NE REUNION_R64_SE REUNION_R64_SW REUNION_R64_NW BOM_LAT BOM_LON BOM_TYPE BOM_WIND BOM_PRES BOM_TNUM BOM_CI BOM_RMW BOM_R34_NE BOM_R34_SE BOM_R34_SW BOM_R34_NW BOM_R50_NE BOM_R50_SE BOM_R50_SW BOM_R50_NW BOM_R64_NE BOM_R64_SE BOM_R64_SW BOM_R64_NW BOM_ROCI BOM_POCI BOM_EYE BOM_POS_METHOD BOM_PRES_METHOD NADI_LAT NADI_LON NADI_CAT NADI_WIND NADI_PRES WELLINGTON_LAT WELLINGTON_LON WELLINGTON_WIND WELLINGTON_PRES DS824_LAT DS824_LON DS824_STAGE DS824_WIND DS824_PRES TD9636_LAT TD9636_LON TD9636_STAGE TD9636_WIND TD9636_PRES TD9635_LAT TD9635_LON TD9635_WIND TD9635_PRES TD9635_ROCI NEUMANN_LAT NEUMANN_LON NEUMANN_CLASS NEUMANN_WIND NEUMANN_PRES MLC_LAT MLC_LON MLC_CLASS MLC_WIND MLC_PRES USA_GUST BOM_GUST BOM_GUST_PER REUNION_GUST REUNION_GUST_PER USA_SEAHGT USA_SEARAD_NE USA_SEARAD_SE USA_SEARAD_SW USA_SEARAD_NW STORM_SPEED STORM_DIR
1945284N14282 1945 70 NA CS NOT_NAMED 1945-10-10 12:00:00 TS 14.0000 -77.9000 30 hurdat_atl main 420 376 O_____________ hurdat_atl AL111945 14.0000 -77.9000 TD 30 -1 9 6
1945284N14282 1945 70 NA CS NOT_NAMED 1945-10-10 15:00:00 TS 14.4524 -77.8703 main 365 324 P_____________ AL111945 14.4524 -77.8703 TD 30 -1 9 354
1945284N14282 1945 70 NA CS NOT_NAMED 1945-10-10 18:00:00 TS 14.9000 -78.0000 30 hurdat_atl main 324 293 O_____________ hurdat_atl AL111945 14.9000 -78.0000 TD 30 -1 10 331
1945284N14282 1945 70 NA CS NOT_NAMED 1945-10-10 21:00:00 TS 15.3427 -78.3899 main 297 267 P_____________ AL111945 15.3427 -78.3899 TD 32 -1 13 316
1945284N14282 1945 70 NA CS NOT_NAMED 1945-10-11 00:00:00 TS 15.8000 -78.9000 35 hurdat_atl main 267 237 O_____________ hurdat_atl AL111945 15.8000 -78.9000 TS 35 0 14 315
1945284N14282 1945 70 NA CS NOT_NAMED 1945-10-11 03:00:00 TS 16.2926 -79.3799 main 237 215 P_____________ AL111945 16.2926 -79.3799 TS 35 0 13 319
1945284N14282 1945 70 NA CS NOT_NAMED 1945-10-11 06:00:00 TS 16.8000 -79.8000 35 hurdat_atl main 215 203 O_____________ hurdat_atl AL111945 16.8000 -79.8000 TS 35 0 12 325
1945284N14282 1945 70 NA CS NOT_NAMED 1945-10-11 09:00:00 TS 17.2999 -80.1175 main 206 201 P_____________ AL111945 17.2999 -80.1175 TS 40 0 11 334
1945284N14282 1945 70 NA CS NOT_NAMED 1945-10-11 12:00:00 TS 17.8000 -80.3000 45 hurdat_atl main 205 200 O_____________ hurdat_atl AL111945 17.8000 -80.3000 TS 45 0 10 348
1945284N14282 1945 70 NA CS NOT_NAMED 1945-10-11 15:00:00 TS 18.3149 -80.3453 main 200 200 P_____________ AL111945 18.3149 -80.3453 TS 50 0 10 1
1945284N14282 1945 70 NA CS NOT_NAMED 1945-10-11 18:00:00 TS 18.8000 -80.3000 55 hurdat_atl main 211 211 O_____________ hurdat_atl AL111945 18.8000 -80.3000 TS 55 0 9 4
1945284N14282 1945 70 NA CS NOT_NAMED 1945-10-11 21:00:00 TS 19.2075 -80.2798 main 228 228 P_____________ AL111945 19.2075 -80.2798 TS 60 0 8 7
1945284N14282 1945 70 NA CS NOT_NAMED 1945-10-12 00:00:00 TS 19.6000 -80.2000 65 hurdat_atl main 235 186 O_____________ hurdat_atl AL111945 19.6000 -80.2000 HU 65 1 9 16
1945284N14282 1945 70 NA CS NOT_NAMED 1945-10-12 03:00:00 TS 20.0275 -80.0299 main 186 126 P_____________ AL111945 20.0275 -80.0299 HU 70 1 10 23
1945284N14282 1945 70 NA CS NOT_NAMED 1945-10-12 06:00:00 TS 20.5000 -79.8000 75 hurdat_atl main 126 67 O_____________ hurdat_atl AL111945 20.5000 -79.8000 HU 75 1 11 23
1945284N14282 1945 70 NA CS NOT_NAMED 1945-10-12 09:00:00 TS 21.0199 -79.5722 main 67 0 P_____________ AL111945 21.0199 -79.5722 HU 80 1 12 23
1945284N14282 1945 70 NA CS NOT_NAMED 1945-10-12 12:00:00 TS 21.6000 -79.3000 85 hurdat_atl main 0 0 O_____________ hurdat_atl AL111945 21.6000 -79.3000 HU 85 2 13 23
1945284N14282 1945 70 NA NA NOT_NAMED 1945-10-12 15:00:00 TS 22.2346 -79.0167 main 0 0 P_____________ AL111945 22.2346 -79.0167 HU 82 1 15 27
1945284N14282 1945 70 NA NA NOT_NAMED 1945-10-12 18:00:00 TS 22.9000 -78.6000 80 hurdat_atl main 67 67 O_____________ hurdat_atl AL111945 22.9000 -78.6000 HU 80 1 16 37
1945284N14282 1945 70 NA NA NOT_NAMED 1945-10-12 21:00:00 TS 23.5428 -77.9524 main 78 52 P_____________ AL111945 23.5428 -77.9524 HU 80 1 18 45
1945284N14282 1945 70 NA NA NOT_NAMED 1945-10-13 00:00:00 TS 24.2000 -77.2000 80 hurdat_atl main 60 60 O_____________ hurdat_atl AL111945 24.2000 -77.2000 HU 80 1 19 44
1945284N14282 1945 70 NA NA NOT_NAMED 1945-10-13 03:00:00 TS 24.8765 -76.5431 main 129 129 P_____________ AL111945 24.8765 -76.5431 HU 77 1 19 42
1945284N14282 1945 70 NA NA NOT_NAMED 1945-10-13 06:00:00 TS 25.6000 -75.8000 75 982 hurdat_atl main 224 224 O_____________ hurdat_atl AL111945 25.6000 -75.8000 HU 75 982 1 21 43
1945284N14282 1945 70 NA NA NOT_NAMED 1945-10-13 09:00:00 TS 26.4052 -74.9409 main 342 342 P_____________ AL111945 26.4052 -74.9409 HU 72 1 24 48
1945284N14282 1945 70 NA NA NOT_NAMED 1945-10-13 12:00:00 TS 27.2000 -73.8000 70 hurdat_atl main 480 480 O_____________ hurdat_atl AL111945 27.2000 -73.8000 HU 70 1 29 59
1945284N14282 1945 70 NA NA NOT_NAMED 1945-10-13 15:00:00 TS 27.8680 -72.1873 main 655 655 P_____________ AL111945 27.8680 -72.1873 HU 67 1 32 66
1945284N14282 1945 70 NA NA NOT_NAMED 1945-10-13 18:00:00 TS 28.5000 -70.5000 65 hurdat_atl main 834 834 O_____________ hurdat_atl AL111945 28.5000 -70.5000 HU 65 1 29 63
1945284N14282 1945 70 NA NA NOT_NAMED 1945-10-13 21:00:00 TS 29.1938 -69.2831 main 913 913 P_____________ AL111945 29.1938 -69.2831 HU 65 1 26 57
1945284N14282 1945 70 NA NA NOT_NAMED 1945-10-14 00:00:00 ET 29.9000 -68.0000 65 hurdat_atl main 956 956 O_____________ hurdat_atl AL111945 29.9000 -68.0000 EX 65 -4 30 63
1945284N14282 1945 70 NA NA NOT_NAMED 1945-10-14 03:00:00 ET 30.5664 -66.1893 main 1039 1039 P_____________ AL111945 30.5664 -66.1893 EX 60 -4 35 68
1945284N14282 1945 70 NA NA NOT_NAMED 1945-10-14 06:00:00 ET 31.2000 -64.2000 55 hurdat_atl main 1163 1163 O_____________ hurdat_atl AL111945 31.2000 -64.2000 EX 55 -4 36 69
1945284N14282 1945 70 NA NA NOT_NAMED 1945-10-14 09:00:00 ET 31.8365 -62.2900 main 1295 1291 P_____________ AL111945 31.8365 -62.2900 EX 47 -4 34 69
1945284N14282 1945 70 NA NA NOT_NAMED 1945-10-14 12:00:00 ET 32.4000 -60.5000 40 hurdat_atl main 1304 1298 O_____________ hurdat_atl AL111945 32.4000 -60.5000 EX 40 -4 30 71
1945284N14282 1945 70 NA NA NOT_NAMED 1945-10-14 15:00:00 ET 32.8261 -58.9440 main 1314 1308 P_____________ AL111945 32.8261 -58.9440 EX 37 -4 26 72
1945284N14282 1945 70 NA NA NOT_NAMED 1945-10-14 18:00:00 ET 33.2000 -57.5000 35 hurdat_atl main 1330 1330 O_____________ hurdat_atl AL111945 33.2000 -57.5000 EX 35 -4 25 72
1945284N14282 1945 70 NA NA NOT_NAMED 1945-10-14 21:00:00 ET 33.5877 -56.0718 main 1358 1357 P_____________ AL111945 33.5877 -56.0718 EX 35 -4 26 72
1945284N14282 1945 70 NA NA NOT_NAMED 1945-10-15 00:00:00 ET 34.0000 -54.5000 35 hurdat_atl main 1366 1357 O_____________ hurdat_atl AL111945 34.0000 -54.5000 EX 35 -4 30 73
1945284N14282 1945 70 NA NA NOT_NAMED 1945-10-15 03:00:00 ET 34.4387 -52.6474 main 1358 1319 P_____________ AL111945 34.4387 -52.6474 EX 35 -4 34 75
1945284N14282 1945 70 NA NA NOT_NAMED 1945-10-15 06:00:00 ET 34.9000 -50.5000 35 hurdat_atl main 1321 1312 O_____________ hurdat_atl AL111945 34.9000 -50.5000 EX 35 -4 40 77
1945284N14282 1945 70 NA NA NOT_NAMED 1945-10-15 09:00:00 ET 35.3561 -47.9484 main 1321 1321 P_____________ AL111945 35.3561 -47.9484 EX 35 -4 42 78
1945284N14282 1945 70 NA NA NOT_NAMED 1945-10-15 12:00:00 ET 35.8000 -45.5000 35 hurdat_atl main 1360 1358 O_____________ hurdat_atl AL111945 35.8000 -45.5000 EX 35 -4 36 75
1945284N14282 1945 70 NA NA NOT_NAMED 1945-10-15 15:00:00 ET 36.2743 -43.6398 main 1393 1393 P_____________ AL111945 36.2743 -43.6398 EX 35 -4 28 71
1945284N14282 1945 70 NA NA NOT_NAMED 1945-10-15 18:00:00 ET 36.7000 -42.2000 35 hurdat_atl main 1426 1426 O_____________ hurdat_atl AL111945 36.7000 -42.2000 EX 35 -4 22 72
1945284N14282 1945 70 NA NA NOT_NAMED 1945-10-15 21:00:00 ET 36.9685 -41.0215 main 1465 1465 P_____________ AL111945 36.9685 -41.0215 EX 32 -4 18 74
1945284N14282 1945 70 NA NA NOT_NAMED 1945-10-16 00:00:00 ET 37.2000 -40.0000 30 hurdat_atl main 1505 1505 O_____________ hurdat_atl AL111945 37.2000 -40.0000 EX 30 -4 18 73
1945284N14282 1945 70 NA NA NOT_NAMED 1945-10-16 03:00:00 ET 37.4982 -38.8870 main 1547 1547 P_____________ AL111945 37.4982 -38.8870 EX 30 -4 19 72
1945284N14282 1945 70 NA NA NOT_NAMED 1945-10-16 06:00:00 ET 37.8000 -37.7000 30 hurdat_atl main 1599 1599 O_____________ hurdat_atl AL111945 37.8000 -37.7000 EX 30 -4 20 75
1945284N14282 1945 70 NA NA NOT_NAMED 1945-10-16 09:00:00 ET 38.0417 -36.3855 main 1668 1667 P_____________ AL111945 38.0417 -36.3855 EX 30 -4 22 77
1945284N14282 1945 70 NA NA NOT_NAMED 1945-10-16 12:00:00 ET 38.3000 -35.0000 30 hurdat_atl main 1740 1740 O_____________ hurdat_atl AL111945 38.3000 -35.0000 EX 30 -4 23 75
1945284N14282 1945 70 NA NA NOT_NAMED 1945-10-16 15:00:00 ET 38.6305 -33.6038 main 1816 1816 P_____________ AL111945 38.6305 -33.6038 EX 30 -4 23 72
1945284N14282 1945 70 NA NA NOT_NAMED 1945-10-16 18:00:00 ET 39.0000 -32.2000 30 hurdat_atl main 1851 O_____________ hurdat_atl AL111945 39.0000 -32.2000 EX 30 -4 23 71

About IBTrACS Database

This database is a web-friendly format of International Best Track Archive for Climate Stewardship (IBTrACS), a global best track data archive curated by NOAA dating back to 1842.

Updated: 2021-10-21